Observations for ODIHAM RAF, United Kingdom (EGVO)

EGVO 220450Z 17005KT 0800 FG VV/// 16/16 Q1020 RED  
EGVO 220350Z 17005KT 0700 FG VV/// 16/16 Q1020 RED  
EGVO 220250Z 18006KT 0500 FG VV/// 16/16 Q1020 RED  
EGVO 220150Z AUTO 17003KT 0350 FG OVC002/// 16/16 Q1020 
EGVO 220050Z AUTO 16003KT 0550 FG OVC002/// 17/17 Q1020 
EGVO 212350Z 19005KT 1500 BR OVC002 17/17 Q1020 AMB 
EGVO 212250Z 17005KT 2000 BR OVC002 17/17 Q1021 AMB 
EGVO 212222Z 18005KT 5000 BR BKN002 BKN020 17/17 Q1021 AMB
EGVO 212150Z 16005KT 8000 BR BKN003 BKN020 18/17 Q1021 YLO2 
EGVO 212050Z 17005KT 9999 BKN004 BKN020 18/17 Q1021 YLO2
EGVO 211950Z 16006KT 9999 BKN004 BKN018 18/18 Q1021 YLO2
EGVO 211850Z 13004KT 9999 BKN004 18/18 Q1021 YLO2 TEMPO BKN006 YLO1 
EGVO 211750Z 11005KT 9999 BKN004 19/18 Q1020 YLO2 TEMPO BKN006 YLO1 
EGVO 211650Z 10005KT 9999 FEW005 BKN010 19/18 Q1020 GRN NOSIG   
EGVO 211538Z 07002KT 4000 -DZ OVC007 19/18 Q1021 GRN TEMPO 9999 NSW GRN 
EGVO 211538Z 07002KT 4000 -DZ OVC007 19/18 Q1021 GRN TEMPO 9999 NSW GRN
EGVO 211450Z 17003KT 9999 OVC011 19/17 Q1020 GRN TEMPO BKN015 WHT   
EGVO 211350Z 12003KT 4000 -DZ BKN007 OVC011 19/17 Q1021 GRN TEMPO 9999 NSW BKN011 GRN   
EGVO 211250Z 04003KT 9999 BKN008 OVC012 19/16 Q1021 GRN TEMPO BKN016 WHT
EGVO 211150Z 33003KT 9999 BKN008 BKN012 18/16 Q1021 GRN NOSIG   
EGVO 211123Z 36002KT 9999 OVC008 18/16 Q1021 GRN TEMPO 4000 -DZ GRN
EGVO 211050Z 05003KT 9000 -DZ BKN005 OVC012 17/16 Q1021 YLO1 BECMG BKN007 GRN   
EGVO 211025Z 33002KT 7000 BR FEW004 OVC006 17/16 Q1021 YLO1 TEMPO 4000 -DZ YLO1
EGVO 210950Z 28003KT 3000 -DZ BKN004 OVC006 16/16 Q1021 YLO2 TEMPO 9999 NSW YLO2
EGVO 210850Z 33002KT 9999 OVC004 16/15 Q1021 YLO2 TEMPO 4000 -DZ YLO2   
EGVO 210805Z 02002KT 2500 BR OVC002 15/15 Q1021 AMB BECMG BKN003 YLO2
EGVO 210750Z 02002KT 1500 BR OVC002 15/15 Q1021 AMB BECMG 3000 BR BKN003 YLO2   
EGVO 210650Z 32001KT 0300 FG OVC002 15/15 Q1020 RED BECMG 1500 BR AMB   
EGVO 210550Z 34002KT 0400 FG OVC002 15/14 Q1020 RED BECMG 1500 BR AMB   
EGVO 210505Z 04002KT 0700 FG OVC002 14/14 Q1020 RED
EGVO 210450Z 02003KT 1200 BR OVC002 15/14 Q1020 AMB